Latest Coastal Weather Observations for Redcliffe

IDQ60701

Issued at 8:01 am EST Saturday 4 July 2015 (issued every 10 minutes, with the page automatically refreshed every 10 minutes)

About coastal observations | Map of coastal stations | Coastal observations for QLD | Marine services | Other Formats
Station Details ID: 040958 Name: REDCLIFFE Lat: -27.22 Lon: 153.09 Height: 12.6 m
Data from the previous 72 hours. | See also: Recent months at Redcliffe
Date/Time
EST
Temp

°C
Wind Pressure Rain
since 9am
mm
Weather Cloud Vis
km
Sea
Height
m
Swell
Dir
 
Speed
knots
Gust
knots
hPa Trend Height
m
Period
s
Dir
04/08:00am 13.6 SW 7 9 1023.7 - 0.0 - - - - - - -
04/07:30am 12.4 SW 6 8 1023.5 - 0.0 - - - - - - -
04/07:00am 12.0 SW 6 8 1023.1 - 0.0 - - - - - - -
04/06:30am 11.3 SW 6 9 1023.1 - 0.0 - - - - - - -
04/06:00am 11.5 SW 8 10 1022.7 - 0.0 - - - - - - -
04/05:30am 12.2 SW 8 11 1022.6 - 0.0 - - - - - - -
04/05:00am 12.3 SW 8 11 1022.3 - 0.0 - - - - - - -
04/04:30am 11.7 SSW 9 13 1022.1 - 0.0 - - - - - - -
04/04:00am 11.3 SW 7 10 1022.2 - 0.0 - - - - - - -
04/03:30am 11.6 WSW 5 6 1022.3 - 0.0 - - - - - - -
04/03:00am 12.5 SW 5 6 1022.3 - 0.0 - - - - - - -
04/02:30am 12.9 SW 6 7 1022.4 - 0.0 - - - - - - -
04/02:00am 12.4 WSW 5 7 1022.6 - 0.0 - - - - - - -
04/01:30am 12.4 W 6 8 1022.7 - 0.0 - - - - - - -
04/01:00am 12.3 WSW 7 8 1022.9 - 0.0 - - - - - - -
04/12:30am 11.7 WSW 6 6 1022.9 - 0.0 - - - - - - -
04/12:00am 11.7 SW 6 7 1022.6 - 0.0 - - - - - - -
 
Date/Time
EST
Temp

°C
Wind Pressure Rain
since 9am
mm
Weather Cloud Vis
km
Sea
Height
m
Swell
Dir
 
Speed
knots
Gust
knots
hPa Trend Height
m
Period
s
Dir
03/11:30pm 11.8 SW 6 8 1023.1 - 0.0 - - - - - - -
03/11:00pm 12.2 SW 6 8 1023.3 - 0.0 - - - - - - -
03/10:30pm 12.4 SW 7 10 1023.6 - 0.0 - - - - - - -
03/10:00pm 13.0 SSW 8 10 1023.7 - 0.0 - - - - - - -
03/09:30pm 13.3 SW 8 10 1023.5 - 0.0 - - - - - - -
03/09:00pm 12.7 WSW 6 8 1023.4 - 0.0 - - - - - - -
03/08:30pm 12.9 WSW 6 7 1023.1 - 0.0 - - - - - - -
03/08:00pm 13.4 SW 7 9 1023.1 - 0.0 - - - - - - -
03/07:30pm 14.7 SSW 7 9 1022.9 - 0.0 - - - - - - -
03/07:00pm 15.1 S 10 13 1022.6 - 0.0 - - - - - - -
03/06:30pm 15.7 S 11 14 1022.2 - 0.0 - - - - - - -
03/06:00pm 16.1 SSE 13 15 1021.9 - 0.0 - - - - - - -
03/05:30pm 16.5 SE 12 14 1021.5 - 0.0 - - - - - - -
03/05:00pm 16.9 SE 13 15 1021.3 - 0.0 - - - - - - -
03/04:30pm 17.5 SSE 13 15 1021.2 - 0.0 - - - - - - -
03/04:00pm 17.8 SE 13 15 1021.1 - 0.0 - - - - - - -
03/03:30pm 18.1 SE 14 16 1020.9 - 0.0 - - - - - - -
03/03:00pm 18.1 SE 13 15 1020.8 - 0.0 - - - - - - -
03/02:30pm 18.0 SE 12 14 1020.7 - 0.0 - - - - - - -
03/02:00pm 18.6 SSE 10 10 1020.6 - 0.0 - - - - - - -
03/01:30pm 18.4 SSE 13 16 1020.7 - 0.0 - - - - - - -
03/01:00pm 18.4 S 10 15 1020.9 - 0.0 - - - - - - -
03/12:30pm 17.7 S 11 14 1021.4 - 0.0 - - - - - - -
03/12:00pm 18.1 SSW 11 16 1021.6 - 0.0 - - - - - - -
03/11:30am 17.2 SSW 12 17 1022.1 - 0.0 - - - - - - -
03/11:00am 17.0 SSW 11 15 1022.3 - 0.0 - - - - - - -
03/10:30am 16.3 SSW 11 14 1022.7 - 0.0 - - - - - - -
03/10:00am 15.6 SW 12 17 1022.9 - 0.0 - - - - - - -
03/09:30am 14.3 SW 12 16 1022.9 - 0.0 - - - - - - -
03/09:00am 13.3 SW 11 15 1022.7 - 0.0 - - - - - - -
03/08:30am 12.1 SW 10 14 1022.5 - 0.0 - - - - - - -
03/08:00am 10.3 SW 10 14 1022.2 - 0.0 - - - - - - -
03/07:30am 8.5 WSW 7 9 1022.1 - 0.0 - - - - - - -
03/07:00am 7.6 SW 7 9 1021.8 - 0.0 - - - - - - -
03/06:30am 6.9 WSW 6 8 1021.5 - 0.0 - - - - - - -
03/06:00am 7.2 WSW 6 8 1021.0 - 0.0 - - - - - - -
03/05:30am 7.6 WSW 7 9 1020.7 - 0.0 - - - - - - -
03/05:00am 7.8 WSW 9 12 1020.3 - 0.0 - - - - - - -
03/04:30am 7.9 WSW 9 14 1019.9 - 0.0 - - - - - - -
03/04:00am 7.9 WSW 9 12 1019.8 - 0.0 - - - - - - -
03/03:30am 7.8 WSW 9 11 1019.9 - 0.0 - - - - - - -
03/03:00am 8.2 WSW 7 10 1019.9 - 0.0 - - - - - - -
03/02:30am 8.9 WSW 5 7 1020.2 - 0.0 - - - - - - -
03/02:00am 9.0 WSW 5 7 1020.1 - 0.0 - - - - - - -
03/01:30am 9.2 W 6 8 1020.0 - 0.0 - - - - - - -
03/01:00am 9.8 WNW 7 9 1020.3 - 0.0 - - - - - - -
03/12:30am 9.6 W 7 10 1020.2 - 0.0 - - - - - - -
03/12:00am 10.0 WNW 6 9 1020.2 - 0.0 - - - - - - -
 
Date/Time
EST
Temp

°C
Wind Pressure Rain
since 9am
mm
Weather Cloud Vis
km
Sea
Height
m
Swell
Dir
 
Speed
knots
Gust
knots
hPa Trend Height
m
Period
s
Dir
02/11:30pm 9.9 WSW 7 9 1020.5 - 0.0 - - - - - - -
02/11:00pm 10.1 WSW 5 7 1020.6 - 0.0 - - - - - - -
02/10:30pm 10.6 W 5 6 1020.3 - 0.0 - - - - - - -
02/10:00pm 11.6 W 4 5 1020.0 - 0.0 - - - - - - -
02/09:30pm 11.8 WNW 4 5 1019.7 - 0.0 - - - - - - -
02/09:00pm 12.5 WSW 5 6 1019.8 - 0.0 - - - - - - -
02/08:30pm 13.3 W 9 11 1019.7 - 0.0 - - - - - - -
02/08:00pm 13.1 W 8 10 1019.4 - 0.0 - - - - - - -
02/07:30pm 12.7 WNW 5 8 1019.1 - 0.0 - - - - - - -
02/07:00pm 13.5 WNW 6 7 1019.0 - 0.0 - - - - - - -
02/06:30pm 14.5 W 7 7 1019.0 - 0.0 - - - - - - -
02/06:00pm 15.0 W 7 10 1018.9 - 0.0 - - - - - - -
02/05:30pm 15.1 WNW 5 8 1018.5 - 0.0 - - - - - - -
02/05:00pm 16.3 W 6 7 1018.2 - 0.0 - - - - - - -
02/04:30pm 17.3 WSW 6 11 1018.3 - 0.0 - - - - - - -
02/04:00pm 18.0 WSW 9 13 1018.1 - 0.0 - - - - - - -
02/03:30pm 18.3 W 9 12 1017.9 - 0.0 - - - - - - -
02/03:00pm 18.7 W 10 14 1018.0 - 0.0 - - - - - - -
02/02:30pm 18.6 W 9 13 1018.0 - 0.0 - - - - - - -
02/02:00pm 18.8 W 8 13 1018.2 - 0.0 - - - - - - -
02/01:30pm 18.3 W 12 16 1018.4 - 0.0 - - - - - - -
02/01:00pm 18.9 WNW 9 14 1018.6 - 0.0 - - - - - - -
02/12:30pm 18.7 W 10 13 1019.2 - 0.0 - - - - - - -
02/12:00pm 18.7 W 9 15 1019.7 - 0.0 - - - - - - -
02/11:30am 18.8 W 9 14 1020.4 - 0.0 - - - - - - -
02/11:00am 18.6 WSW 9 13 1020.8 - 0.0 - - - - - - -
02/10:30am 17.8 W 9 12 1021.5 - 0.0 - - - - - - -
02/10:00am 17.2 WSW 8 11 1021.9 - 0.0 - - - - - - -
02/09:30am 16.2 WSW 9 11 1022.3 - 0.0 - - - - - - -
02/09:00am 15.5 WNW 7 10 1022.1 - 0.0 - - - - - - -
02/08:30am 14.6 WSW 7 10 1021.8 - 0.0 - - - - - - -
02/08:00am 13.3 WSW 7 9 1021.5 - 0.0 - - - - - - -
02/07:30am 12.6 W 6 8 1021.2 - 0.0 - - - - - - -
02/07:00am 11.8 W 6 8 1021.2 - 0.0 - - - - - - -
02/06:30am 11.1 W 4 5 1021.1 - 0.0 - - - - - - -
02/06:00am 11.1 WSW 3 6 1020.8 - 0.0 - - - - - - -
02/05:30am 11.6 WSW 3 4 1020.6 - 0.0 - - - - - - -
02/05:00am 11.8 WSW 6 8 1020.4 - 0.0 - - - - - - -
02/04:30am 11.9 W 5 6 1020.5 - 0.0 - - - - - - -
02/04:00am 12.1 WSW 6 8 1020.5 - 0.0 - - - - - - -
02/03:30am 11.6 WSW 5 7 1020.7 - 0.0 - - - - - - -
02/03:00am 12.0 WSW 4 5 1020.9 - 0.0 - - - - - - -
02/02:30am 12.9 WNW 4 5 1021.0 - 0.0 - - - - - - -
02/02:00am 13.4 W 5 6 1020.8 - 0.0 - - - - - - -
02/01:30am 13.6 W 6 7 1021.2 - 0.0 - - - - - - -
02/01:00am 13.6 WNW 6 8 1021.4 - 0.0 - - - - - - -
02/12:30am 14.0 WNW 7 8 1021.5 - 0.0 - - - - - - -
02/12:00am 14.2 W 9 12 1021.8 - 0.0 - - - - - - -
 
Date/Time
EST
Temp

°C
Wind Pressure Rain
since 9am
mm
Weather Cloud Vis
km
Sea
Height
m
Swell
Dir
 
Speed
knots
Gust
knots
hPa Trend Height
m
Period
s
Dir
01/11:30pm 14.2 W 8 9 1021.9 - 0.0 - - - - - - -
01/11:00pm 14.8 W 7 8 1022.2 - 0.0 - - - - - - -
01/10:30pm 15.3 W 6 8 1022.1 - 0.0 - - - - - - -
01/10:00pm 15.5 W 7 9 1022.4 - 0.0 - - - - - - -
01/09:30pm 15.8 WSW 4 5 1022.5 - 0.0 - - - - - - -
01/09:00pm 15.8 SSW 5 6 1022.6 - 0.0 - - - - - - -
01/08:30pm 16.3 WSW 3 5 1022.2 - 0.0 - - - - - - -
01/08:00pm 16.5 SW 4 5 1022.0 - 0.0 - - - - - - -
01/07:30pm 16.2 WSW 5 6 1021.9 - 0.0 - - - - - - -
01/07:00pm 16.6 WSW 5 6 1021.6 - 0.0 - - - - - - -
01/06:30pm 17.5 N 4 5 1021.4 - 0.0 - - - - - - -
01/06:00pm 18.0 N 5 6 1020.9 - 0.0 - - - - - - -
01/05:30pm 18.3 NNE 7 8 1020.7 - 0.0 - - - - - - -
01/05:00pm 18.7 NE 4 5 1020.6 - 0.0 - - - - - - -
01/04:30pm 19.4 NNE 5 6 1020.5 - 0.0 - - - - - - -
01/04:00pm 19.9 NE 5 6 1020.7 - 0.0 - - - - - - -
01/03:30pm 19.9 ENE 5 6 1020.6 - 0.0 - - - - - - -
01/03:00pm 20.3 NE 6 8 1020.6 - 0.0 - - - - - - -
01/02:30pm 20.6 ENE 7 7 1020.9 - 0.0 - - - - - - -
01/02:00pm 20.8 ENE 6 7 1020.9 - 0.0 - - - - - - -
01/01:30pm 21.4 ENE 5 6 1021.3 - 0.0 - - - - - - -
01/01:00pm 20.3 E 5 6 1021.6 - 0.0 - - - - - - -
01/12:30pm 19.0 SE 5 7 1022.2 - 0.0 - - - - - - -
01/12:00pm 20.4 SSE 5 6 1022.7 - 0.0 - - - - - - -
01/11:30am 20.3 SSE 6 7 1023.3 - 0.0 - - - - - - -
01/11:00am 20.8 SSE 7 8 1023.7 - 0.0 - - - - - - -
01/10:30am 19.4 SSE 6 7 1024.1 - 0.0 - - - - - - -
01/10:00am 18.1 SSE 5 5 1024.4 - 0.0 - - - - - - -
01/09:30am 17.6 WSW 1 4 1024.5 - 0.0 - - - - - - -
01/09:00am 15.5 CALM 0 0 1024.5 - 0.2 - - - - - - -
01/08:30am 15.2 W 3 4 1024.4 - 0.2 - - - - - - -

Other Formats:

Comma delimited format used in spreadsheet applications
http://www.bom.gov.au/fwo/IDQ60701/IDQ60701.95591.axf

JavaScript Object Notation format (JSON) in row-major order
http://www.bom.gov.au/fwo/IDQ60701/IDQ60701.95591.json